createdAt,value
2018-05-27T00:01:57.233Z,31.63
2018-05-27T00:04:25.808Z,29.97
2018-05-27T00:06:53.990Z,30.03
2018-05-27T00:09:22.056Z,31.00
2018-05-27T00:11:50.099Z,29.90
2018-05-27T00:14:18.305Z,32.90
2018-05-27T00:16:46.476Z,29.57
2018-05-27T00:19:14.946Z,31.20
2018-05-27T00:21:43.142Z,31.97
2018-05-27T00:24:11.594Z,36.60
2018-05-27T00:26:40.363Z,34.77
2018-05-27T00:29:08.590Z,33.27
2018-05-27T00:31:37.162Z,30.30
2018-05-27T00:34:05.704Z,32.97
2018-05-27T00:36:34.094Z,31.57
2018-05-27T00:39:02.496Z,31.70
2018-05-27T00:41:30.645Z,32.23
2018-05-27T00:43:59.038Z,31.10
2018-05-27T00:46:27.328Z,32.50
2018-05-27T00:48:55.598Z,32.17
2018-05-27T00:51:24.059Z,31.83
2018-05-27T00:53:59.909Z,29.80
2018-05-27T00:56:28.327Z,32.80
2018-05-27T00:58:56.585Z,33.03
2018-05-27T01:01:24.852Z,30.97
2018-05-27T01:03:53.066Z,31.37
2018-05-27T01:06:22.849Z,31.13
2018-05-27T01:08:51.260Z,29.70
2018-05-27T01:11:20.250Z,31.53
2018-05-27T01:13:49.025Z,30.83
2018-05-27T01:16:17.797Z,30.13
2018-05-27T01:18:45.761Z,31.40
2018-05-27T01:21:14.330Z,30.13
2018-05-27T01:23:42.740Z,29.47
2018-05-27T01:26:11.104Z,29.30
2018-05-27T01:28:39.156Z,31.00
2018-05-27T01:31:07.662Z,32.00
2018-05-27T01:33:35.964Z,29.80
2018-05-27T01:36:04.730Z,31.80
2018-05-27T01:38:33.082Z,31.60
2018-05-27T01:41:01.472Z,29.97
2018-05-27T01:43:30.064Z,31.70
2018-05-27T01:45:58.450Z,30.77
2018-05-27T01:48:26.821Z,33.40
2018-05-27T01:50:55.768Z,30.77
2018-05-27T01:53:23.982Z,30.70
2018-05-27T01:55:52.047Z,31.87
2018-05-27T01:58:20.549Z,30.70
2018-05-27T02:00:49.039Z,33.73
2018-05-27T02:03:17.706Z,31.80
2018-05-27T02:05:46.147Z,32.37
2018-05-27T02:08:14.777Z,30.57
2018-05-27T02:10:43.127Z,32.10
2018-05-27T02:13:11.314Z,31.53
2018-05-27T02:15:39.384Z,34.40
2018-05-27T02:18:07.464Z,32.40
2018-05-27T02:20:35.752Z,31.10
2018-05-27T02:23:05.127Z,31.67
2018-05-27T02:25:32.998Z,30.60
2018-05-27T02:28:01.375Z,34.00
2018-05-27T02:30:29.775Z,30.27
2018-05-27T02:32:58.219Z,32.70
2018-05-27T02:35:26.608Z,30.40
2018-05-27T02:37:54.852Z,33.47
2018-05-27T02:40:23.273Z,32.53
2018-05-27T02:42:51.822Z,33.20
2018-05-27T02:45:19.952Z,35.63
2018-05-27T02:47:49.127Z,33.90
2018-05-27T02:50:17.188Z,33.40
2018-05-27T02:52:45.449Z,33.90
2018-05-27T02:55:14.663Z,34.20
2018-05-27T02:57:42.643Z,33.87
2018-05-27T03:00:10.801Z,31.67
2018-05-27T03:02:39.037Z,34.90
2018-05-27T03:05:06.950Z,32.90
2018-05-27T03:07:34.812Z,32.67
2018-05-27T03:10:02.988Z,32.27
2018-05-27T03:12:31.044Z,31.73
2018-05-27T03:14:59.334Z,32.60
2018-05-27T03:17:27.402Z,32.20
2018-05-27T03:19:55.647Z,32.80
2018-05-27T03:22:24.974Z,32.73
2018-05-27T03:24:53.531Z,37.37
2018-05-27T03:27:21.713Z,36.07
2018-05-27T03:29:49.914Z,34.30
2018-05-27T03:32:18.054Z,32.47
2018-05-27T03:34:46.353Z,35.07
2018-05-27T03:37:15.119Z,34.67
2018-05-27T03:39:43.211Z,33.67
2018-05-27T03:42:12.412Z,34.63
2018-05-27T03:44:40.689Z,35.40
2018-05-27T03:47:09.091Z,34.80
2018-05-27T03:49:38.571Z,35.10
2018-05-27T03:52:06.816Z,37.50
2018-05-27T03:54:34.709Z,35.70
2018-05-27T03:57:02.888Z,36.30
2018-05-27T03:59:31.341Z,35.60
2018-05-27T04:01:59.744Z,37.17
2018-05-27T04:04:53.618Z,37.70
2018-05-27T04:07:33.572Z,35.03
2018-05-27T04:10:01.552Z,35.43
2018-05-27T04:12:29.577Z,34.60
2018-05-27T04:14:58.098Z,36.83
2018-05-27T04:17:26.554Z,34.90
2018-05-27T04:19:54.772Z,36.50
2018-05-27T04:22:23.584Z,36.60
2018-05-27T04:24:51.500Z,35.67
2018-05-27T04:27:19.878Z,34.47
2018-05-27T04:29:47.936Z,36.30
2018-05-27T04:32:16.030Z,35.07
2018-05-27T04:34:44.913Z,33.90
2018-05-27T04:37:13.404Z,35.53
2018-05-27T04:39:41.566Z,34.37
2018-05-27T04:42:09.955Z,36.40
2018-05-27T04:44:38.282Z,35.27
2018-05-27T04:47:06.494Z,34.63
2018-05-27T04:49:34.871Z,34.83
2018-05-27T04:52:03.424Z,35.63
2018-05-27T04:54:31.527Z,34.67
2018-05-27T04:56:59.992Z,35.00
2018-05-27T04:59:28.200Z,34.13
2018-05-27T05:01:56.544Z,35.23
2018-05-27T05:04:24.753Z,35.77
2018-05-27T05:06:52.973Z,34.63
2018-05-27T05:09:21.311Z,35.40
2018-05-27T05:11:50.492Z,36.33
2018-05-27T05:14:18.648Z,33.63
2018-05-27T05:16:46.950Z,35.67
2018-05-27T05:19:15.313Z,34.90
2018-05-27T05:21:43.678Z,34.80
2018-05-27T05:24:12.235Z,32.97
2018-05-27T05:26:40.844Z,34.93
2018-05-27T05:29:08.948Z,33.97
2018-05-27T05:31:38.146Z,34.83
2018-05-27T05:34:07.442Z,33.37
2018-05-27T05:36:36.415Z,35.37
2018-05-27T05:39:04.503Z,33.03
2018-05-27T05:41:32.463Z,34.33
2018-05-27T05:44:00.685Z,34.90
2018-05-27T05:46:29.599Z,33.20
2018-05-27T05:48:57.484Z,33.73
2018-05-27T05:51:25.452Z,34.70
2018-05-27T05:53:53.539Z,32.90
2018-05-27T05:56:21.807Z,34.43
2018-05-27T05:58:50.610Z,33.70
2018-05-27T06:01:18.672Z,34.53
2018-05-27T06:03:47.848Z,33.57
2018-05-27T06:06:16.773Z,33.20
2018-05-27T06:08:45.863Z,35.40
2018-05-27T06:11:14.663Z,33.67
2018-05-27T06:13:43.820Z,35.70
2018-05-27T06:16:12.012Z,34.63
2018-05-27T06:18:41.680Z,34.67
2018-05-27T06:21:10.348Z,35.73
2018-05-27T06:23:38.580Z,35.13
2018-05-27T06:26:06.920Z,35.60
2018-05-27T06:28:34.816Z,34.93
2018-05-27T06:31:03.312Z,33.83
2018-05-27T06:33:31.552Z,36.77
2018-05-27T06:35:59.540Z,35.20
2018-05-27T06:38:27.611Z,36.70
2018-05-27T06:40:56.303Z,36.67
2018-05-27T06:43:24.808Z,33.57
2018-05-27T06:45:54.504Z,35.50
2018-05-27T06:48:22.987Z,33.03
2018-05-27T06:50:51.260Z,30.90
2018-05-27T06:53:19.742Z,31.70
2018-05-27T06:55:48.022Z,31.10
2018-05-27T06:58:17.237Z,31.00
2018-05-27T07:00:46.109Z,29.67
2018-05-27T07:03:15.274Z,30.37
2018-05-27T07:05:43.660Z,29.70
2018-05-27T07:08:12.238Z,27.73
2018-05-27T07:10:40.814Z,30.50
2018-05-27T07:13:09.022Z,28.87
2018-05-27T07:15:38.158Z,27.73
2018-05-27T07:18:07.278Z,29.13
2018-05-27T07:20:37.214Z,27.13
2018-05-27T07:23:05.494Z,26.57
2018-05-27T07:25:34.478Z,26.93
2018-05-27T07:28:03.851Z,26.50
2018-05-27T07:30:32.478Z,25.70
2018-05-27T07:33:00.838Z,27.13
2018-05-27T07:35:30.038Z,29.80
2018-05-27T07:37:58.317Z,27.10
2018-05-27T07:40:26.694Z,26.13
2018-05-27T07:42:55.693Z,27.30
2018-05-27T07:45:24.061Z,27.93
2018-05-27T07:47:52.037Z,26.80
2018-05-27T07:50:20.645Z,24.57
2018-05-27T07:52:49.718Z,24.60
2018-05-27T07:55:17.997Z,23.70
2018-05-27T07:57:47.118Z,21.47
2018-05-27T08:00:16.489Z,21.03
2018-05-27T08:02:44.877Z,19.97
2018-05-27T08:05:12.941Z,19.80
2018-05-27T08:07:41.438Z,22.70
2018-05-27T08:10:10.654Z,19.77
2018-05-27T08:12:39.526Z,19.40
2018-05-27T08:15:09.000Z,19.73
2018-05-27T08:17:37.735Z,20.27
2018-05-27T08:20:06.454Z,19.43
2018-05-27T08:22:34.548Z,19.50
2018-05-27T08:25:02.978Z,18.90
2018-05-27T08:27:31.422Z,19.80
2018-05-27T08:30:00.814Z,19.30
2018-05-27T08:32:29.094Z,19.45
2018-05-27T08:34:57.489Z,18.10
2018-05-27T08:37:26.518Z,19.42
2018-05-27T08:39:54.758Z,18.25
2018-05-27T08:42:23.550Z,16.98
2018-05-27T08:44:53.365Z,16.42
2018-05-27T08:47:22.517Z,15.80
2018-05-27T08:49:50.717Z,16.70
2018-05-27T08:52:18.863Z,14.50
2018-05-27T08:54:47.342Z,16.30
2018-05-27T08:57:15.670Z,16.37
2018-05-27T08:59:44.755Z,15.63
2018-05-27T09:02:14.757Z,15.00
2018-05-27T09:04:43.941Z,15.57
2018-05-27T09:07:12.348Z,14.25
2018-05-27T09:09:41.797Z,15.52
2018-05-27T09:12:10.317Z,14.73
2018-05-27T09:14:39.532Z,14.85
2018-05-27T09:17:08.837Z,14.02
2018-05-27T09:19:38.244Z,15.57
2018-05-27T09:22:06.613Z,13.73
2018-05-27T09:24:35.731Z,16.85
2018-05-27T09:27:04.398Z,15.25
2018-05-27T09:29:32.672Z,14.77
2018-05-27T09:32:02.255Z,15.70
2018-05-27T09:34:30.824Z,14.95
2018-05-27T09:36:59.010Z,15.35
2018-05-27T09:39:27.310Z,16.17
2018-05-27T09:41:56.361Z,14.00
2018-05-27T09:44:25.285Z,15.13
2018-05-27T09:46:54.268Z,13.30
2018-05-27T09:49:22.472Z,14.35
2018-05-27T09:51:50.931Z,15.05
2018-05-27T09:54:19.478Z,14.98
2018-05-27T09:56:48.095Z,15.52
2018-05-27T09:59:16.453Z,16.15
2018-05-27T10:01:44.831Z,13.82
2018-05-27T10:04:13.414Z,14.82
2018-05-27T10:06:42.796Z,14.90
2018-05-27T10:09:11.293Z,14.65
2018-05-27T10:11:39.899Z,13.95
2018-05-27T10:14:08.361Z,13.30
2018-05-27T10:16:37.153Z,14.07
2018-05-27T10:19:06.154Z,13.65
2018-05-27T10:21:34.632Z,14.15
2018-05-27T10:24:03.076Z,13.93
2018-05-27T10:26:31.617Z,12.50
2018-05-27T10:29:00.792Z,13.27
2018-05-27T10:31:29.581Z,13.82
2018-05-27T10:33:58.550Z,11.85
2018-05-27T10:36:26.851Z,13.50
2018-05-27T10:38:55.226Z,12.88
2018-05-27T10:41:23.696Z,12.68
2018-05-27T10:43:52.198Z,12.43
2018-05-27T10:46:21.400Z,11.90
2018-05-27T10:48:50.524Z,11.57
2018-05-27T10:51:19.084Z,12.55
2018-05-27T10:53:48.980Z,11.93
2018-05-27T10:56:17.142Z,11.90
2018-05-27T10:58:45.636Z,12.57
2018-05-27T11:01:14.836Z,13.57
2018-05-27T11:03:43.942Z,11.82
2018-05-27T11:06:13.117Z,12.57
2018-05-27T11:08:42.181Z,12.98
2018-05-27T11:11:10.701Z,13.02
2018-05-27T11:13:40.117Z,12.43
2018-05-27T11:16:09.069Z,12.43
2018-05-27T11:18:37.865Z,12.15
2018-05-27T11:21:06.357Z,11.32
2018-05-27T11:23:34.965Z,11.68
2018-05-27T11:26:04.789Z,12.30
2018-05-27T11:28:32.957Z,11.88
2018-05-27T11:31:02.542Z,12.77
2018-05-27T11:33:31.741Z,12.68
2018-05-27T11:36:00.845Z,12.05
2018-05-27T11:38:30.319Z,11.52
2018-05-27T11:40:58.399Z,12.85
2018-05-27T11:43:28.160Z,11.45
2018-05-27T11:45:56.719Z,13.40
2018-05-27T11:48:26.057Z,12.15
2018-05-27T11:50:54.575Z,11.63
2018-05-27T11:53:23.064Z,12.95
2018-05-27T11:55:53.049Z,13.85
2018-05-27T11:58:21.168Z,13.90
2018-05-27T12:00:50.427Z,13.50
2018-05-27T12:03:18.932Z,13.75
2018-05-27T12:05:48.131Z,11.15
2018-05-27T12:08:16.607Z,10.77
2018-05-27T12:10:44.783Z,11.93
2018-05-27T12:13:13.996Z,11.93
2018-05-27T12:15:43.395Z,11.15
2018-05-27T12:18:12.996Z,10.13
2018-05-27T12:20:41.356Z,9.75
2018-05-27T12:23:10.460Z,11.10
2018-05-27T12:25:39.150Z,11.93
2018-05-27T12:28:07.842Z,22.87
2018-05-27T12:30:36.045Z,11.10
2018-05-27T12:33:04.753Z,12.73
2018-05-27T12:35:33.392Z,12.68
2018-05-27T12:38:02.600Z,12.95
2018-05-27T12:40:31.673Z,13.57
2018-05-27T12:43:00.040Z,11.95
2018-05-27T12:45:28.520Z,10.60
2018-05-27T12:47:57.559Z,10.25
2018-05-27T12:50:25.826Z,11.68
2018-05-27T12:53:10.879Z,11.55
2018-05-27T12:55:39.418Z,11.48
2018-05-27T12:58:07.535Z,10.38
2018-05-27T13:00:36.920Z,11.30
2018-05-27T13:03:06.225Z,12.10
2018-05-27T13:05:34.904Z,11.40
2018-05-27T13:08:03.480Z,10.75
2018-05-27T13:10:31.672Z,10.50
2018-05-27T13:13:00.736Z,10.73
2018-05-27T13:15:29.656Z,10.73
2018-05-27T13:17:58.131Z,10.07
2018-05-27T13:20:26.320Z,9.50
2018-05-27T13:22:55.501Z,10.85
2018-05-27T13:25:23.875Z,10.45
2018-05-27T13:27:53.276Z,11.48
2018-05-27T13:30:21.779Z,11.35
2018-05-27T13:32:51.234Z,10.70
2018-05-27T13:35:20.731Z,12.40
2018-05-27T13:37:49.451Z,12.27
2018-05-27T13:40:18.035Z,11.07
2018-05-27T13:42:46.715Z,10.88
2018-05-27T13:45:15.123Z,10.95
2018-05-27T13:47:44.425Z,10.68
2018-05-27T13:50:15.011Z,11.10
2018-05-27T13:52:43.499Z,10.88
2018-05-27T13:55:12.415Z,11.27
2018-05-27T13:57:41.799Z,10.93
2018-05-27T14:00:09.996Z,12.43
2018-05-27T14:02:38.468Z,11.50
2018-05-27T14:05:06.985Z,12.05
2018-05-27T14:07:35.663Z,11.38
2018-05-27T14:10:03.809Z,11.48
2018-05-27T14:12:32.408Z,11.50
2018-05-27T14:15:01.583Z,11.32
2018-05-27T14:17:30.272Z,12.27
2018-05-27T14:19:58.623Z,12.27
2018-05-27T14:22:26.943Z,12.40
2018-05-27T14:24:56.235Z,12.95
2018-05-27T14:27:25.021Z,11.80
2018-05-27T14:29:53.293Z,11.73
2018-05-27T14:32:21.494Z,11.55
2018-05-27T14:34:50.499Z,10.77
2018-05-27T14:37:19.280Z,11.38
2018-05-27T14:39:48.110Z,12.00
2018-05-27T14:42:16.641Z,12.37
2018-05-27T14:44:45.739Z,11.77
2018-05-27T14:47:13.898Z,12.23
2018-05-27T14:49:43.194Z,11.73
2018-05-27T14:52:11.978Z,12.77
2018-05-27T14:54:40.857Z,13.60
2018-05-27T14:57:15.914Z,12.70
2018-05-27T14:59:44.987Z,12.63
2018-05-27T15:02:13.178Z,12.53
2018-05-27T15:04:42.378Z,12.77
2018-05-27T15:07:11.371Z,11.70
2018-05-27T15:09:40.917Z,12.60
2018-05-27T15:12:09.309Z,12.30
2018-05-27T15:14:37.610Z,12.47
2018-05-27T15:17:05.898Z,12.40
2018-05-27T15:19:35.706Z,12.00
2018-05-27T15:22:04.090Z,13.40
2018-05-27T15:24:33.178Z,12.43
2018-05-27T15:27:01.628Z,11.70
2018-05-27T15:29:29.834Z,13.57
2018-05-27T15:31:58.958Z,11.87
2018-05-27T15:34:27.310Z,13.00
2018-05-27T15:36:55.466Z,12.43
2018-05-27T15:39:23.738Z,13.73
2018-05-27T15:41:51.930Z,12.50
2018-05-27T15:44:20.189Z,12.20
2018-05-27T15:46:48.374Z,13.57
2018-05-27T15:49:16.455Z,13.00
2018-05-27T15:51:46.359Z,14.20
2018-05-27T15:54:14.848Z,13.63
2018-05-27T15:56:43.423Z,13.50
2018-05-27T15:59:11.810Z,13.00
2018-05-27T16:01:40.879Z,13.30
2018-05-27T16:04:09.095Z,13.87
2018-05-27T16:06:38.287Z,13.10
2018-05-27T16:09:07.892Z,13.40
2018-05-27T16:11:36.783Z,13.63
2018-05-27T16:14:06.168Z,13.70
2018-05-27T16:16:34.863Z,13.73
2018-05-27T16:19:03.247Z,14.30
2018-05-27T16:21:32.719Z,14.10
2018-05-27T16:24:01.327Z,13.77
2018-05-27T16:26:30.007Z,14.07
2018-05-27T16:28:58.575Z,15.30
2018-05-27T16:31:27.088Z,16.63
2018-05-27T16:33:56.287Z,16.20
2018-05-27T16:36:26.319Z,19.50
2018-05-27T16:38:54.783Z,14.63
2018-05-27T16:41:23.855Z,15.07
2018-05-27T16:43:52.239Z,14.60
2018-05-27T16:46:20.559Z,16.20
2018-05-27T16:48:49.415Z,15.60
2018-05-27T16:51:17.994Z,14.67
2018-05-27T16:53:46.559Z,15.77
2018-05-27T16:56:14.543Z,13.57
2018-05-27T16:58:43.647Z,15.13
2018-05-27T17:01:12.847Z,14.40
2018-05-27T17:03:42.142Z,15.23
2018-05-27T17:06:11.134Z,14.90
2018-05-27T17:08:39.695Z,15.07
2018-05-27T17:11:08.207Z,14.43
2018-05-27T17:13:37.903Z,14.27
2018-05-27T17:16:07.287Z,14.30
2018-05-27T17:18:36.184Z,14.63
2018-05-27T17:21:04.802Z,14.97
2018-05-27T17:23:33.983Z,13.63
2018-05-27T17:26:03.588Z,14.47
2018-05-27T17:28:33.185Z,13.33
2018-05-27T17:31:01.895Z,14.33
2018-05-27T17:33:31.067Z,15.10
2018-05-27T17:35:59.512Z,13.90
2018-05-27T17:38:29.055Z,13.77
2018-05-27T17:40:57.695Z,12.50
2018-05-27T17:43:26.639Z,13.40
2018-05-27T17:45:55.023Z,13.53
2018-05-27T17:48:24.224Z,12.93
2018-05-27T17:50:53.297Z,13.87
2018-05-27T17:53:21.575Z,14.10
2018-05-27T17:55:50.368Z,14.27
2018-05-27T17:58:18.543Z,13.63
2018-05-27T18:00:47.342Z,14.03
2018-05-27T18:03:16.719Z,15.17
2018-05-27T18:05:45.007Z,13.53
2018-05-27T18:08:13.695Z,14.40
2018-05-27T18:10:42.178Z,14.50
2018-05-27T18:13:11.148Z,14.70
2018-05-27T18:15:39.549Z,15.80
2018-05-27T18:18:08.032Z,14.83
2018-05-27T18:20:36.604Z,15.20
2018-05-27T18:23:05.087Z,13.63
2018-05-27T18:25:33.151Z,12.23
2018-05-27T18:28:01.728Z,14.40
2018-05-27T18:30:30.224Z,13.03
2018-05-27T18:32:58.816Z,12.93
2018-05-27T18:35:27.807Z,13.63
2018-05-27T18:37:57.359Z,13.80
2018-05-27T18:40:25.743Z,13.83
2018-05-27T18:42:53.847Z,14.00
2018-05-27T18:45:22.143Z,14.33
2018-05-27T18:47:51.167Z,14.50
2018-05-27T18:50:19.407Z,15.17
2018-05-27T18:52:48.399Z,14.90
2018-05-27T18:55:17.366Z,15.37
2018-05-27T18:57:49.342Z,15.70
2018-05-27T19:00:17.698Z,14.93
2018-05-27T19:02:46.092Z,16.13
2018-05-27T19:05:13.952Z,17.13
2018-05-27T19:07:47.065Z,17.40
2018-05-27T19:10:16.033Z,16.80
2018-05-27T19:12:44.455Z,17.80
2018-05-27T19:15:13.213Z,15.80
2018-05-27T19:17:41.473Z,20.27
2018-05-27T19:20:10.373Z,18.53
2018-05-27T19:22:40.513Z,16.63
2018-05-27T19:25:10.453Z,15.53
2018-05-27T19:27:38.353Z,16.93
2018-05-27T19:33:04.673Z,17.73
2018-05-27T19:35:32.795Z,17.77
2018-05-27T19:38:00.753Z,18.77
2018-05-27T19:40:29.956Z,19.07
2018-05-27T19:42:57.933Z,19.30
2018-05-27T19:48:39.392Z,19.40
2018-05-27T19:51:10.881Z,19.43
2018-05-27T19:53:42.433Z,19.97
2018-05-27T19:56:10.617Z,18.83
2018-05-27T19:58:39.240Z,20.03
2018-05-27T20:01:08.073Z,20.07
2018-05-27T20:03:41.952Z,18.73
2018-05-27T20:06:14.533Z,19.13
2018-05-27T20:08:47.304Z,21.17
2018-05-27T20:11:18.368Z,20.20
2018-05-27T20:13:49.251Z,20.17
2018-05-27T20:16:17.912Z,20.20
2018-05-27T20:18:46.066Z,20.10
2018-05-27T20:21:14.572Z,19.87
2018-05-27T20:23:42.461Z,21.27
2018-05-27T20:26:11.473Z,21.37
2018-05-27T20:34:44.793Z,20.37
2018-05-27T20:37:15.572Z,21.03
2018-05-27T20:39:45.352Z,21.97
2018-05-27T20:42:16.473Z,23.07
2018-05-27T20:44:47.552Z,22.40
2018-05-27T20:47:18.172Z,22.73
2018-05-27T20:49:48.092Z,23.00
2018-05-27T20:52:20.212Z,23.93
2018-05-27T20:54:48.572Z,23.50
2018-05-27T20:57:18.952Z,24.37
2018-05-27T20:59:49.192Z,24.00
2018-05-27T21:02:17.592Z,25.57
2018-05-27T21:04:47.032Z,23.67
2018-05-27T21:07:17.432Z,24.07
2018-05-27T21:09:46.774Z,23.93
2018-05-27T21:12:15.112Z,24.23
2018-05-27T21:14:43.400Z,23.87
2018-05-27T21:17:11.491Z,24.20
2018-05-27T21:19:41.604Z,25.97
2018-05-27T21:22:12.172Z,25.07
2018-05-27T21:24:45.411Z,23.97
2018-05-27T21:27:14.072Z,23.53
2018-05-27T21:30:09.292Z,24.17
2018-05-27T21:32:40.712Z,24.90
2018-05-27T21:35:09.112Z,24.40
2018-05-27T21:37:39.792Z,24.00
2018-05-27T21:40:14.097Z,24.67
2018-05-27T21:42:44.612Z,23.33
2018-05-27T21:45:15.391Z,24.63
2018-05-27T21:47:44.692Z,25.40
2018-05-27T21:50:15.492Z,23.93
2018-05-27T21:52:43.632Z,23.63
2018-05-27T21:55:11.992Z,25.23
2018-05-27T21:57:39.972Z,24.70
2018-05-27T22:00:08.052Z,25.70
2018-05-27T22:02:36.271Z,26.10
2018-05-27T22:05:04.184Z,24.30
2018-05-27T22:07:32.373Z,26.03
2018-05-27T22:10:00.232Z,24.53
2018-05-27T22:12:28.152Z,23.07
2018-05-27T22:14:56.158Z,24.00
2018-05-27T22:17:26.537Z,22.77
2018-05-27T22:19:57.630Z,24.67
2018-05-27T22:22:44.767Z,23.80
2018-05-27T22:43:48.792Z,23.00
2018-05-27T22:46:16.980Z,24.77
2018-05-27T22:48:45.652Z,24.43
2018-05-27T22:51:13.418Z,23.90
2018-05-27T22:53:41.037Z,26.10
2018-05-27T22:56:09.653Z,23.20
2018-05-27T22:58:37.857Z,24.60
2018-05-27T23:01:06.474Z,25.17
2018-05-27T23:03:34.999Z,24.10
2018-05-27T23:06:02.606Z,23.80
2018-05-27T23:08:30.512Z,24.47
2018-05-27T23:10:58.886Z,23.10
2018-05-27T23:13:26.751Z,22.70
2018-05-27T23:15:54.824Z,23.93
2018-05-27T23:18:22.821Z,22.60
2018-05-27T23:20:50.790Z,23.13
2018-05-27T23:23:18.829Z,22.43
2018-05-27T23:25:46.734Z,24.40
2018-05-27T23:28:15.699Z,22.97
2018-05-27T23:30:43.447Z,24.50
2018-05-27T23:33:11.112Z,25.20
2018-05-27T23:35:39.187Z,22.33
2018-05-27T23:38:06.972Z,22.57
2018-05-27T23:40:35.551Z,22.17
2018-05-27T23:43:03.182Z,22.63
2018-05-27T23:45:31.246Z,23.40
2018-05-27T23:47:59.452Z,22.20
2018-05-27T23:50:27.312Z,21.50
2018-05-27T23:52:55.477Z,23.50
2018-05-27T23:55:23.504Z,23.00
2018-05-27T23:57:52.267Z,21.50
